sensor_id;sensor_type;location;lat;lon;timestamp;pressure;altitude;pressure_sealevel;temperature;humidity
4326;BME280;58429;49.826;10.880;2023-02-18T00:00:15;99278;;;10.12;89.08
4326;BME280;58429;49.826;10.880;2023-02-18T00:01:14;99276;;;10.15;88.98
4326;BME280;58429;49.826;10.880;2023-02-18T00:02:14;99279;;;10.11;88.98
4326;BME280;58429;49.826;10.880;2023-02-18T00:03:14;99280;;;10.12;89.04
4326;BME280;58429;49.826;10.880;2023-02-18T00:04:14;99283;;;10.11;89.03
4326;BME280;58429;49.826;10.880;2023-02-18T00:05:14;99269;;;10.09;89.13
4326;BME280;58429;49.826;10.880;2023-02-18T00:06:14;99270;;;10.1;89.19
4326;BME280;58429;49.826;10.880;2023-02-18T00:07:14;99271;;;10.09;89.29
4326;BME280;58429;49.826;10.880;2023-02-18T00:08:14;99272;;;10.05;89.14
4326;BME280;58429;49.826;10.880;2023-02-18T00:09:14;99276;;;10.1;89.13
4326;BME280;58429;49.826;10.880;2023-02-18T00:10:14;99274;;;10.06;89.11
4326;BME280;58429;49.826;10.880;2023-02-18T00:11:14;99273;;;10.11;89.19
4326;BME280;58429;49.826;10.880;2023-02-18T00:12:14;99267;;;10.08;89.16
4326;BME280;58429;49.826;10.880;2023-02-18T00:13:14;99280;;;10.07;89.09
4326;BME280;58429;49.826;10.880;2023-02-18T00:14:14;99274;;;10.09;89.09
4326;BME280;58429;49.826;10.880;2023-02-18T00:15:14;99273;;;10.07;89.17
4326;BME280;58429;49.826;10.880;2023-02-18T00:16:14;99278;;;10.08;89.13
4326;BME280;58429;49.826;10.880;2023-02-18T00:17:14;99270;;;10.1;89.17
4326;BME280;58429;49.826;10.880;2023-02-18T00:18:14;99272;;;10.07;89.12
4326;BME280;58429;49.826;10.880;2023-02-18T00:19:15;99280;;;10.09;89.14
4326;BME280;58429;49.826;10.880;2023-02-18T00:20:14;99276;;;10.1;89.24
4326;BME280;58429;49.826;10.880;2023-02-18T00:21:14;99276;;;10.06;89.38
4326;BME280;58429;49.826;10.880;2023-02-18T00:22:14;99272;;;10.05;89.38
4326;BME280;58429;49.826;10.880;2023-02-18T00:23:14;99271;;;10.05;89.37
4326;BME280;58429;49.826;10.880;2023-02-18T00:24:14;99267;;;10.06;89.28
4326;BME280;58429;49.826;10.880;2023-02-18T00:25:14;99271;;;10.05;89.26
4326;BME280;58429;49.826;10.880;2023-02-18T00:26:15;99271;;;10.09;89.21
4326;BME280;58429;49.826;10.880;2023-02-18T00:27:14;99268;;;10.03;89.29
4326;BME280;58429;49.826;10.880;2023-02-18T00:28:14;99272;;;10.06;89.37
4326;BME280;58429;49.826;10.880;2023-02-18T00:29:14;99276;;;10.03;89.31
4326;BME280;58429;49.826;10.880;2023-02-18T00:30:14;99280;;;10.02;89.45
4326;BME280;58429;49.826;10.880;2023-02-18T00:31:15;99277;;;10.08;89.41
4326;BME280;58429;49.826;10.880;2023-02-18T00:32:14;99283;;;10.02;89.34
4326;BME280;58429;49.826;10.880;2023-02-18T00:33:14;99281;;;10.03;89.43
4326;BME280;58429;49.826;10.880;2023-02-18T00:34:14;99275;;;10.05;89.48
4326;BME280;58429;49.826;10.880;2023-02-18T00:35:14;99275;;;9.98;89.51
4326;BME280;58429;49.826;10.880;2023-02-18T00:36:14;99268;;;10.01;89.56
4326;BME280;58429;49.826;10.880;2023-02-18T00:37:14;99273;;;10.05;89.51
4326;BME280;58429;49.826;10.880;2023-02-18T00:38:14;99266;;;10.02;89.5
4326;BME280;58429;49.826;10.880;2023-02-18T00:39:14;99260;;;10.03;89.57
4326;BME280;58429;49.826;10.880;2023-02-18T00:40:14;99268;;;10.05;89.57
4326;BME280;58429;49.826;10.880;2023-02-18T00:41:14;99268;;;10.03;89.56
4326;BME280;58429;49.826;10.880;2023-02-18T00:42:14;99274;;;10.06;89.52
4326;BME280;58429;49.826;10.880;2023-02-18T00:43:14;99264;;;10.07;89.42
4326;BME280;58429;49.826;10.880;2023-02-18T00:44:14;99272;;;10.09;89.41
4326;BME280;58429;49.826;10.880;2023-02-18T00:45:14;99265;;;10.06;89.35
4326;BME280;58429;49.826;10.880;2023-02-18T00:46:14;99262;;;10.09;89.31
4326;BME280;58429;49.826;10.880;2023-02-18T00:47:14;99264;;;10.1;89.22
4326;BME280;58429;49.826;10.880;2023-02-18T00:48:14;99267;;;10.09;89.08
4326;BME280;58429;49.826;10.880;2023-02-18T00:49:14;99266;;;10.1;89.02
4326;BME280;58429;49.826;10.880;2023-02-18T00:50:14;99264;;;10.1;88.94
4326;BME280;58429;49.826;10.880;2023-02-18T00:51:14;99255;;;10.13;88.84
4326;BME280;58429;49.826;10.880;2023-02-18T00:52:14;99265;;;10.14;88.75
4326;BME280;58429;49.826;10.880;2023-02-18T00:53:14;99269;;;10.16;88.68
4326;BME280;58429;49.826;10.880;2023-02-18T00:54:14;99267;;;10.18;88.57
4326;BME280;58429;49.826;10.880;2023-02-18T00:55:14;99260;;;10.18;88.51
4326;BME280;58429;49.826;10.880;2023-02-18T00:56:14;99267;;;10.26;88.47
4326;BME280;58429;49.826;10.880;2023-02-18T00:57:14;99262;;;10.24;88.45
4326;BME280;58429;49.826;10.880;2023-02-18T00:58:14;99264;;;10.26;88.44
4326;BME280;58429;49.826;10.880;2023-02-18T00:59:14;99267;;;10.24;88.41
4326;BME280;58429;49.826;10.880;2023-02-18T01:00:14;99264;;;10.25;88.43
4326;BME280;58429;49.826;10.880;2023-02-18T01:01:14;99274;;;10.24;88.45
4326;BME280;58429;49.826;10.880;2023-02-18T01:02:14;99269;;;10.24;88.48
4326;BME280;58429;49.826;10.880;2023-02-18T01:03:14;99267;;;10.24;88.55
4326;BME280;58429;49.826;10.880;2023-02-18T01:04:14;99271;;;10.23;88.61
4326;BME280;58429;49.826;10.880;2023-02-18T01:05:14;99274;;;10.22;88.61
4326;BME280;58429;49.826;10.880;2023-02-18T01:06:14;99272;;;10.24;88.75
4326;BME280;58429;49.826;10.880;2023-02-18T01:07:14;99263;;;10.21;88.78
4326;BME280;58429;49.826;10.880;2023-02-18T01:08:14;99268;;;10.24;88.93
4326;BME280;58429;49.826;10.880;2023-02-18T01:09:14;99269;;;10.2;89.08
4326;BME280;58429;49.826;10.880;2023-02-18T01:10:14;99263;;;10.24;89.17
4326;BME280;58429;49.826;10.880;2023-02-18T01:11:14;99265;;;10.16;89.25
4326;BME280;58429;49.826;10.880;2023-02-18T01:12:14;99262;;;10.15;89.35
4326;BME280;58429;49.826;10.880;2023-02-18T01:13:14;99272;;;10.19;89.44
4326;BME280;58429;49.826;10.880;2023-02-18T01:14:14;99274;;;10.13;89.44
4326;BME280;58429;49.826;10.880;2023-02-18T01:15:14;99272;;;10.13;89.45
4326;BME280;58429;49.826;10.880;2023-02-18T01:16:14;99276;;;10.12;89.52
4326;BME280;58429;49.826;10.880;2023-02-18T01:17:14;99273;;;10.1;89.57
4326;BME280;58429;49.826;10.880;2023-02-18T01:18:14;99270;;;10.09;89.62
4326;BME280;58429;49.826;10.880;2023-02-18T01:19:14;99265;;;10.11;89.64
4326;BME280;58429;49.826;10.880;2023-02-18T01:20:14;99272;;;10.1;89.67
4326;BME280;58429;49.826;10.880;2023-02-18T01:21:14;99270;;;10.12;89.69
4326;BME280;58429;49.826;10.880;2023-02-18T01:22:14;99267;;;10.11;89.67
4326;BME280;58429;49.826;10.880;2023-02-18T01:23:14;99263;;;10.09;89.76
4326;BME280;58429;49.826;10.880;2023-02-18T01:24:14;99259;;;10.1;89.76
4326;BME280;58429;49.826;10.880;2023-02-18T01:25:14;99267;;;10.09;89.78
4326;BME280;58429;49.826;10.880;2023-02-18T01:26:14;99263;;;10.09;89.84
4326;BME280;58429;49.826;10.880;2023-02-18T01:27:14;99262;;;10.1;89.83
4326;BME280;58429;49.826;10.880;2023-02-18T01:28:14;99271;;;10.11;89.83
4326;BME280;58429;49.826;10.880;2023-02-18T01:29:14;99278;;;10.09;89.82
4326;BME280;58429;49.826;10.880;2023-02-18T01:30:15;99278;;;10.07;89.8
4326;BME280;58429;49.826;10.880;2023-02-18T01:31:14;99284;;;10.08;89.78
4326;BME280;58429;49.826;10.880;2023-02-18T01:32:14;99265;;;10.06;89.75
4326;BME280;58429;49.826;10.880;2023-02-18T01:33:14;99275;;;10.06;89.76
4326;BME280;58429;49.826;10.880;2023-02-18T01:34:14;99271;;;10.06;89.71
4326;BME280;58429;49.826;10.880;2023-02-18T01:35:14;99268;;;10.09;89.7
4326;BME280;58429;49.826;10.880;2023-02-18T01:36:14;99261;;;10.11;89.65
4326;BME280;58429;49.826;10.880;2023-02-18T01:37:14;99273;;;10.11;89.66
4326;BME280;58429;49.826;10.880;2023-02-18T01:38:14;99271;;;10.16;89.61
4326;BME280;58429;49.826;10.880;2023-02-18T01:39:14;99273;;;10.13;89.61
4326;BME280;58429;49.826;10.880;2023-02-18T01:40:15;99269;;;10.11;89.57
4326;BME280;58429;49.826;10.880;2023-02-18T01:41:14;99268;;;10.13;89.59
4326;BME280;58429;49.826;10.880;2023-02-18T01:42:17;99270;;;10.15;89.58
4326;BME280;58429;49.826;10.880;2023-02-18T01:43:14;99269;;;10.09;89.58
4326;BME280;58429;49.826;10.880;2023-02-18T01:44:16;99274;;;10.11;89.61
4326;BME280;58429;49.826;10.880;2023-02-18T01:45:48;99270;;;10.12;89.61
4326;BME280;58429;49.826;10.880;2023-02-18T01:46:16;99272;;;10.11;89.64
4326;BME280;58429;49.826;10.880;2023-02-18T01:47:15;99269;;;10.07;89.63
4326;BME280;58429;49.826;10.880;2023-02-18T01:48:15;99268;;;10.05;89.71
4326;BME280;58429;49.826;10.880;2023-02-18T01:49:15;99270;;;10.06;89.75
4326;BME280;58429;49.826;10.880;2023-02-18T01:50:14;99267;;;10.08;89.75
4326;BME280;58429;49.826;10.880;2023-02-18T01:51:15;99273;;;10.05;89.74
4326;BME280;58429;49.826;10.880;2023-02-18T01:52:15;99263;;;10.06;89.81
4326;BME280;58429;49.826;10.880;2023-02-18T01:53:15;99262;;;10.05;89.83
4326;BME280;58429;49.826;10.880;2023-02-18T01:54:16;99259;;;10.04;89.86
4326;BME280;58429;49.826;10.880;2023-02-18T01:55:14;99257;;;10.01;89.84
4326;BME280;58429;49.826;10.880;2023-02-18T01:56:15;99253;;;10.03;89.89
4326;BME280;58429;49.826;10.880;2023-02-18T01:57:15;99251;;;9.99;89.88
4326;BME280;58429;49.826;10.880;2023-02-18T01:58:14;99255;;;10.02;89.86
4326;BME280;58429;49.826;10.880;2023-02-18T01:59:15;99252;;;9.98;89.86
4326;BME280;58429;49.826;10.880;2023-02-18T02:00:15;99248;;;10.01;89.87
4326;BME280;58429;49.826;10.880;2023-02-18T02:01:14;99242;;;9.97;89.88
4326;BME280;58429;49.826;10.880;2023-02-18T02:02:16;99244;;;10.01;89.96
4326;BME280;58429;49.826;10.880;2023-02-18T02:03:14;99245;;;9.98;89.96
4326;BME280;58429;49.826;10.880;2023-02-18T02:04:14;99238;;;9.98;89.95
4326;BME280;58429;49.826;10.880;2023-02-18T02:05:14;99250;;;10.02;89.94
4326;BME280;58429;49.826;10.880;2023-02-18T02:06:15;99239;;;9.97;89.92
4326;BME280;58429;49.826;10.880;2023-02-18T02:07:14;99245;;;9.99;90.02
4326;BME280;58429;49.826;10.880;2023-02-18T02:08:14;99238;;;9.95;90
4326;BME280;58429;49.826;10.880;2023-02-18T02:09:14;99241;;;9.96;90.03
4326;BME280;58429;49.826;10.880;2023-02-18T02:10:14;99237;;;9.94;89.99
4326;BME280;58429;49.826;10.880;2023-02-18T02:11:20;99239;;;9.96;90.06
4326;BME280;58429;49.826;10.880;2023-02-18T02:12:20;99239;;;9.95;90.07
4326;BME280;58429;49.826;10.880;2023-02-18T02:13:15;99228;;;9.99;90.11
4326;BME280;58429;49.826;10.880;2023-02-18T02:14:19;99229;;;9.93;90.06
4326;BME280;58429;49.826;10.880;2023-02-18T02:15:20;99228;;;9.93;90.05
4326;BME280;58429;49.826;10.880;2023-02-18T02:16:17;99224;;;9.93;90.04
4326;BME280;58429;49.826;10.880;2023-02-18T02:17:16;99219;;;9.93;90.05
4326;BME280;58429;49.826;10.880;2023-02-18T02:18:24;99225;;;9.91;90.12
4326;BME280;58429;49.826;10.880;2023-02-18T02:19:22;99224;;;9.93;90.11
4326;BME280;58429;49.826;10.880;2023-02-18T02:20:29;99221;;;9.94;90.14
4326;BME280;58429;49.826;10.880;2023-02-18T02:22:19;99221;;;9.93;90.16
4326;BME280;58429;49.826;10.880;2023-02-18T02:22:26;99220;;;9.94;90.18
4326;BME280;58429;49.826;10.880;2023-02-18T02:23:23;99223;;;9.9;90.12
4326;BME280;58429;49.826;10.880;2023-02-18T02:24:23;99224;;;9.94;90.12
4326;BME280;58429;49.826;10.880;2023-02-18T02:25:16;99226;;;9.89;90.12
4326;BME280;58429;49.826;10.880;2023-02-18T02:26:21;99225;;;9.88;90.1
4326;BME280;58429;49.826;10.880;2023-02-18T02:27:18;99232;;;9.88;90.08
4326;BME280;58429;49.826;10.880;2023-02-18T02:28:23;99228;;;9.9;90.08
4326;BME280;58429;49.826;10.880;2023-02-18T02:29:23;99223;;;9.87;90.07
4326;BME280;58429;49.826;10.880;2023-02-18T02:30:52;99217;;;9.9;90.07
4326;BME280;58429;49.826;10.880;2023-02-18T02:31:23;99219;;;9.89;90.09
4326;BME280;58429;49.826;10.880;2023-02-18T02:32:34;99214;;;9.89;90.19
4326;BME280;58429;49.826;10.880;2023-02-18T02:34:47;99217;;;9.89;90.11
4326;BME280;58429;49.826;10.880;2023-02-18T02:35:14;99216;;;9.86;90.18
4326;BME280;58429;49.826;10.880;2023-02-18T02:36:15;99213;;;9.9;90.18
4326;BME280;58429;49.826;10.880;2023-02-18T02:37:15;99217;;;9.88;90.18
4326;BME280;58429;49.826;10.880;2023-02-18T02:38:15;99210;;;9.89;90.22
4326;BME280;58429;49.826;10.880;2023-02-18T02:39:16;99215;;;9.91;90.26
4326;BME280;58429;49.826;10.880;2023-02-18T02:40:17;99209;;;9.88;90.22
4326;BME280;58429;49.826;10.880;2023-02-18T02:41:17;99207;;;9.92;90.21
4326;BME280;58429;49.826;10.880;2023-02-18T02:42:16;99198;;;9.92;90.23
4326;BME280;58429;49.826;10.880;2023-02-18T02:43:17;99210;;;9.91;90.17
4326;BME280;58429;49.826;10.880;2023-02-18T02:44:18;99214;;;9.91;90.15
4326;BME280;58429;49.826;10.880;2023-02-18T02:45:17;99211;;;9.92;90.14
4326;BME280;58429;49.826;10.880;2023-02-18T02:46:16;99208;;;9.93;90.11
4326;BME280;58429;49.826;10.880;2023-02-18T02:47:16;99206;;;9.95;90.1
4326;BME280;58429;49.826;10.880;2023-02-18T02:48:16;99207;;;9.95;90.06
4326;BME280;58429;49.826;10.880;2023-02-18T02:49:18;99210;;;9.99;90.03
4326;BME280;58429;49.826;10.880;2023-02-18T02:50:16;99202;;;9.98;89.99
4326;BME280;58429;49.826;10.880;2023-02-18T02:51:14;99212;;;9.96;89.93
4326;BME280;58429;49.826;10.880;2023-02-18T02:52:16;99218;;;9.99;89.92
4326;BME280;58429;49.826;10.880;2023-02-18T02:53:15;99213;;;9.99;89.84
4326;BME280;58429;49.826;10.880;2023-02-18T02:54:17;99205;;;10.04;89.82
4326;BME280;58429;49.826;10.880;2023-02-18T02:55:14;99196;;;10.04;89.72
4326;BME280;58429;49.826;10.880;2023-02-18T02:56:16;99206;;;10.04;89.66
4326;BME280;58429;49.826;10.880;2023-02-18T02:57:48;99205;;;10.05;89.62
4326;BME280;58429;49.826;10.880;2023-02-18T02:58:15;99203;;;10.07;89.57
4326;BME280;58429;49.826;10.880;2023-02-18T02:59:15;99201;;;10.08;89.53
4326;BME280;58429;49.826;10.880;2023-02-18T03:00:15;99200;;;10.05;89.5
4326;BME280;58429;49.826;10.880;2023-02-18T03:01:18;99195;;;10.07;89.47
4326;BME280;58429;49.826;10.880;2023-02-18T03:02:17;99200;;;10.05;89.49
4326;BME280;58429;49.826;10.880;2023-02-18T03:03:18;99193;;;10.05;89.46
4326;BME280;58429;49.826;10.880;2023-02-18T03:04:19;99202;;;10.07;89.47
4326;BME280;58429;49.826;10.880;2023-02-18T03:05:17;99203;;;10.07;89.47
4326;BME280;58429;49.826;10.880;2023-02-18T03:06:22;99195;;;10.07;89.43
4326;BME280;58429;49.826;10.880;2023-02-18T03:07:18;99200;;;10.1;89.45
4326;BME280;58429;49.826;10.880;2023-02-18T03:08:19;99198;;;10.08;89.43
4326;BME280;58429;49.826;10.880;2023-02-18T03:09:15;99192;;;10.06;89.48
4326;BME280;58429;49.826;10.880;2023-02-18T03:10:16;99200;;;10.06;89.49
4326;BME280;58429;49.826;10.880;2023-02-18T03:11:14;99207;;;10.05;89.54
4326;BME280;58429;49.826;10.880;2023-02-18T03:12:17;99207;;;10.08;89.58
4326;BME280;58429;49.826;10.880;2023-02-18T03:13:17;99199;;;10.04;89.62
4326;BME280;58429;49.826;10.880;2023-02-18T03:14:16;99200;;;10.06;89.71
4326;BME280;58429;49.826;10.880;2023-02-18T03:15:16;99205;;;10.06;89.7
4326;BME280;58429;49.826;10.880;2023-02-18T03:16:17;99211;;;10.05;89.73
4326;BME280;58429;49.826;10.880;2023-02-18T03:17:16;99203;;;10.04;89.84
4326;BME280;58429;49.826;10.880;2023-02-18T03:18:16;99209;;;10.03;89.9
4326;BME280;58429;49.826;10.880;2023-02-18T03:19:17;99210;;;10.03;89.88
4326;BME280;58429;49.826;10.880;2023-02-18T03:20:15;99207;;;10.03;89.92
4326;BME280;58429;49.826;10.880;2023-02-18T03:21:15;99207;;;10.02;89.91
4326;BME280;58429;49.826;10.880;2023-02-18T03:22:15;99210;;;9.99;89.91
4326;BME280;58429;49.826;10.880;2023-02-18T03:23:15;99202;;;9.99;89.96
4326;BME280;58429;49.826;10.880;2023-02-18T03:24:15;99201;;;9.95;90.06
4326;BME280;58429;49.826;10.880;2023-02-18T03:25:14;99199;;;9.97;90.06
4326;BME280;58429;49.826;10.880;2023-02-18T03:26:15;99196;;;9.95;90.08
4326;BME280;58429;49.826;10.880;2023-02-18T03:27:15;99200;;;9.94;90.14
4326;BME280;58429;49.826;10.880;2023-02-18T03:28:16;99207;;;9.95;90.08
4326;BME280;58429;49.826;10.880;2023-02-18T03:29:14;99206;;;9.93;90.17
4326;BME280;58429;49.826;10.880;2023-02-18T03:30:15;99198;;;9.9;90.21
4326;BME280;58429;49.826;10.880;2023-02-18T03:31:15;99205;;;9.94;90.22
4326;BME280;58429;49.826;10.880;2023-02-18T03:32:14;99205;;;9.94;90.27
4326;BME280;58429;49.826;10.880;2023-02-18T03:33:15;99209;;;9.93;90.25
4326;BME280;58429;49.826;10.880;2023-02-18T03:34:15;99212;;;9.92;90.21
4326;BME280;58429;49.826;10.880;2023-02-18T03:35:15;99214;;;9.9;90.4
4326;BME280;58429;49.826;10.880;2023-02-18T03:36:14;99213;;;9.95;90.44
4326;BME280;58429;49.826;10.880;2023-02-18T03:37:14;99217;;;9.94;90.38
4326;BME280;58429;49.826;10.880;2023-02-18T03:38:15;99219;;;9.91;90.35
4326;BME280;58429;49.826;10.880;2023-02-18T03:39:15;99216;;;9.95;90.39
4326;BME280;58429;49.826;10.880;2023-02-18T03:40:14;99210;;;9.94;90.43
4326;BME280;58429;49.826;10.880;2023-02-18T03:41:14;99211;;;9.92;90.4
4326;BME280;58429;49.826;10.880;2023-02-18T03:42:14;99212;;;9.91;90.39
4326;BME280;58429;49.826;10.880;2023-02-18T03:43:14;99209;;;9.92;90.39
4326;BME280;58429;49.826;10.880;2023-02-18T03:44:14;99212;;;9.9;90.33
4326;BME280;58429;49.826;10.880;2023-02-18T03:45:14;99214;;;9.91;90.33
4326;BME280;58429;49.826;10.880;2023-02-18T03:46:14;99210;;;9.9;90.34
4326;BME280;58429;49.826;10.880;2023-02-18T03:47:14;99208;;;9.91;90.28
4326;BME280;58429;49.826;10.880;2023-02-18T03:48:14;99209;;;9.85;90.3
4326;BME280;58429;49.826;10.880;2023-02-18T03:49:14;99203;;;9.92;90.33
4326;BME280;58429;49.826;10.880;2023-02-18T03:50:14;99199;;;9.92;90.3
4326;BME280;58429;49.826;10.880;2023-02-18T03:51:14;99203;;;9.95;90.31
4326;BME280;58429;49.826;10.880;2023-02-18T03:52:14;99207;;;9.92;90.27
4326;BME280;58429;49.826;10.880;2023-02-18T03:53:14;99199;;;9.93;90.26
4326;BME280;58429;49.826;10.880;2023-02-18T03:54:14;99201;;;9.94;90.28
4326;BME280;58429;49.826;10.880;2023-02-18T03:55:14;99207;;;9.96;90.29
4326;BME280;58429;49.826;10.880;2023-02-18T03:56:14;99203;;;9.94;90.26
4326;BME280;58429;49.826;10.880;2023-02-18T03:57:14;99206;;;9.93;90.31
4326;BME280;58429;49.826;10.880;2023-02-18T03:58:14;99211;;;9.91;90.27
4326;BME280;58429;49.826;10.880;2023-02-18T03:59:14;99210;;;9.94;90.29
4326;BME280;58429;49.826;10.880;2023-02-18T04:00:14;99205;;;9.95;90.3
4326;BME280;58429;49.826;10.880;2023-02-18T04:01:14;99212;;;9.91;90.25
4326;BME280;58429;49.826;10.880;2023-02-18T04:02:14;99211;;;9.95;90.31
4326;BME280;58429;49.826;10.880;2023-02-18T04:03:14;99207;;;9.95;90.27
4326;BME280;58429;49.826;10.880;2023-02-18T04:04:14;99214;;;9.95;90.23
4326;BME280;58429;49.826;10.880;2023-02-18T04:05:14;99216;;;9.96;90.19
4326;BME280;58429;49.826;10.880;2023-02-18T04:06:15;99207;;;9.98;90.11
4326;BME280;58429;49.826;10.880;2023-02-18T04:07:14;99213;;;9.96;90.06
4326;BME280;58429;49.826;10.880;2023-02-18T04:08:14;99214;;;9.98;89.93
4326;BME280;58429;49.826;10.880;2023-02-18T04:09:14;99213;;;9.99;89.75
4326;BME280;58429;49.826;10.880;2023-02-18T04:10:14;99214;;;10.03;89.6
4326;BME280;58429;49.826;10.880;2023-02-18T04:11:14;99206;;;10.02;89.43
4326;BME280;58429;49.826;10.880;2023-02-18T04:12:14;99212;;;10.03;89.32
4326;BME280;58429;49.826;10.880;2023-02-18T04:13:14;99212;;;10.04;89.27
4326;BME280;58429;49.826;10.880;2023-02-18T04:14:14;99211;;;10.09;89.29
4326;BME280;58429;49.826;10.880;2023-02-18T04:15:14;99216;;;10.09;89.1
4326;BME280;58429;49.826;10.880;2023-02-18T04:16:14;99214;;;10.07;89.1
4326;BME280;58429;49.826;10.880;2023-02-18T04:17:14;99204;;;10.09;88.93
4326;BME280;58429;49.826;10.880;2023-02-18T04:18:14;99217;;;10.09;88.85
4326;BME280;58429;49.826;10.880;2023-02-18T04:19:14;99216;;;10.1;88.79
4326;BME280;58429;49.826;10.880;2023-02-18T04:20:14;99217;;;10.09;88.73
4326;BME280;58429;49.826;10.880;2023-02-18T04:21:14;99217;;;10.11;88.74
4326;BME280;58429;49.826;10.880;2023-02-18T04:22:14;99216;;;10.08;88.58
4326;BME280;58429;49.826;10.880;2023-02-18T04:23:14;99223;;;10.1;88.57
4326;BME280;58429;49.826;10.880;2023-02-18T04:24:14;99224;;;10.1;88.55
4326;BME280;58429;49.826;10.880;2023-02-18T04:25:14;99219;;;10.1;88.51
4326;BME280;58429;49.826;10.880;2023-02-18T04:26:14;99225;;;10.11;88.47
4326;BME280;58429;49.826;10.880;2023-02-18T04:27:14;99230;;;10.12;88.46
4326;BME280;58429;49.826;10.880;2023-02-18T04:28:14;99220;;;10.13;88.42
4326;BME280;58429;49.826;10.880;2023-02-18T04:29:14;99223;;;10.11;88.43
4326;BME280;58429;49.826;10.880;2023-02-18T04:30:14;99220;;;10.1;88.43
4326;BME280;58429;49.826;10.880;2023-02-18T04:31:14;99216;;;10.11;88.38
4326;BME280;58429;49.826;10.880;2023-02-18T04:32:14;99211;;;10.12;88.4
4326;BME280;58429;49.826;10.880;2023-02-18T04:33:14;99210;;;10.1;88.41
4326;BME280;58429;49.826;10.880;2023-02-18T04:34:14;99214;;;10.12;88.35
4326;BME280;58429;49.826;10.880;2023-02-18T04:35:14;99212;;;10.15;88.33
4326;BME280;58429;49.826;10.880;2023-02-18T04:36:14;99211;;;10.09;88.27
4326;BME280;58429;49.826;10.880;2023-02-18T04:37:14;99218;;;10.09;88.26
4326;BME280;58429;49.826;10.880;2023-02-18T04:38:14;99221;;;10.11;88.22
4326;BME280;58429;49.826;10.880;2023-02-18T04:39:14;99211;;;10.11;88.15
4326;BME280;58429;49.826;10.880;2023-02-18T04:40:14;99215;;;10.16;88.16
4326;BME280;58429;49.826;10.880;2023-02-18T04:41:14;99214;;;10.12;88.09
4326;BME280;58429;49.826;10.880;2023-02-18T04:42:14;99219;;;10.1;88.08
4326;BME280;58429;49.826;10.880;2023-02-18T04:43:14;99226;;;10.15;88.02
4326;BME280;58429;49.826;10.880;2023-02-18T04:44:14;99230;;;10.15;87.94
4326;BME280;58429;49.826;10.880;2023-02-18T04:45:14;99225;;;10.12;87.93
4326;BME280;58429;49.826;10.880;2023-02-18T04:46:14;99230;;;10.18;87.94
4326;BME280;58429;49.826;10.880;2023-02-18T04:47:15;99221;;;10.12;87.82
4326;BME280;58429;49.826;10.880;2023-02-18T04:48:14;99226;;;10.14;87.77
4326;BME280;58429;49.826;10.880;2023-02-18T04:49:14;99225;;;10.14;87.76
4326;BME280;58429;49.826;10.880;2023-02-18T04:50:14;99228;;;10.12;87.72
4326;BME280;58429;49.826;10.880;2023-02-18T04:51:14;99228;;;10.16;87.69
4326;BME280;58429;49.826;10.880;2023-02-18T04:52:14;99236;;;10.14;87.6
4326;BME280;58429;49.826;10.880;2023-02-18T04:53:14;99229;;;10.12;87.57
4326;BME280;58429;49.826;10.880;2023-02-18T04:54:15;99233;;;10.16;87.55
4326;BME280;58429;49.826;10.880;2023-02-18T04:55:14;99231;;;10.16;87.57
4326;BME280;58429;49.826;10.880;2023-02-18T04:56:14;99237;;;10.13;87.58
4326;BME280;58429;49.826;10.880;2023-02-18T04:57:14;99232;;;10.14;87.43
4326;BME280;58429;49.826;10.880;2023-02-18T04:58:14;99232;;;10.17;87.36
4326;BME280;58429;49.826;10.880;2023-02-18T04:59:15;99230;;;10.14;87.38
4326;BME280;58429;49.826;10.880;2023-02-18T05:00:15;99231;;;10.16;87.36
4326;BME280;58429;49.826;10.880;2023-02-18T05:01:14;99231;;;10.13;87.43
4326;BME280;58429;49.826;10.880;2023-02-18T05:02:14;99229;;;10.12;87.44
4326;BME280;58429;49.826;10.880;2023-02-18T05:03:14;99232;;;10.13;87.5
4326;BME280;58429;49.826;10.880;2023-02-18T05:04:14;99227;;;10.13;87.6
4326;BME280;58429;49.826;10.880;2023-02-18T05:05:14;99229;;;10.11;87.58
4326;BME280;58429;49.826;10.880;2023-02-18T05:06:14;99223;;;10.12;87.68
4326;BME280;58429;49.826;10.880;2023-02-18T05:07:14;99223;;;10.07;87.75
4326;BME280;58429;49.826;10.880;2023-02-18T05:08:14;99232;;;10.1;87.8
4326;BME280;58429;49.826;10.880;2023-02-18T05:09:14;99223;;;10.05;87.83
4326;BME280;58429;49.826;10.880;2023-02-18T05:10:15;99227;;;10.08;87.87
4326;BME280;58429;49.826;10.880;2023-02-18T05:11:14;99226;;;10.03;87.88
4326;BME280;58429;49.826;10.880;2023-02-18T05:12:14;99231;;;10.05;87.93
4326;BME280;58429;49.826;10.880;2023-02-18T05:13:14;99228;;;10.05;88.01
4326;BME280;58429;49.826;10.880;2023-02-18T05:14:14;99221;;;10.03;88
4326;BME280;58429;49.826;10.880;2023-02-18T05:15:15;99222;;;10.01;88.03
4326;BME280;58429;49.826;10.880;2023-02-18T05:16:14;99211;;;10;88.09
4326;BME280;58429;49.826;10.880;2023-02-18T05:17:14;99216;;;10.05;88.1
4326;BME280;58429;49.826;10.880;2023-02-18T05:18:14;99211;;;10;88.14
4326;BME280;58429;49.826;10.880;2023-02-18T05:19:14;99218;;;9.98;88.17
4326;BME280;58429;49.826;10.880;2023-02-18T05:20:14;99208;;;10;88.24
4326;BME280;58429;49.826;10.880;2023-02-18T05:21:14;99207;;;9.97;88.3
4326;BME280;58429;49.826;10.880;2023-02-18T05:22:14;99206;;;9.96;88.36
4326;BME280;58429;49.826;10.880;2023-02-18T05:23:14;99207;;;9.95;88.42
4326;BME280;58429;49.826;10.880;2023-02-18T05:24:14;99208;;;9.93;88.53
4326;BME280;58429;49.826;10.880;2023-02-18T05:25:14;99210;;;9.96;88.57
4326;BME280;58429;49.826;10.880;2023-02-18T05:26:14;99211;;;9.94;88.62
4326;BME280;58429;49.826;10.880;2023-02-18T05:27:14;99210;;;9.93;88.74
4326;BME280;58429;49.826;10.880;2023-02-18T05:28:14;99212;;;9.88;88.82
4326;BME280;58429;49.826;10.880;2023-02-18T05:29:14;99217;;;9.91;88.78
4326;BME280;58429;49.826;10.880;2023-02-18T05:30:14;99212;;;9.87;88.94
4326;BME280;58429;49.826;10.880;2023-02-18T05:31:14;99209;;;9.86;88.9
4326;BME280;58429;49.826;10.880;2023-02-18T05:32:14;99206;;;9.87;88.96
4326;BME280;58429;49.826;10.880;2023-02-18T05:33:14;99204;;;9.87;89.13
4326;BME280;58429;49.826;10.880;2023-02-18T05:34:14;99203;;;9.86;89.21